Time;durP1;ratioP1;P1;durP2;ratioP2;P2;SDS_P1;SDS_P2;PMS_P1;PMS_P2;Temp;Humidity;BMP_temperature;BMP_pressure;BME280_temperature;BME280_humidity;BME280_pressure;Samples;Min_cycle;Max_cycle;Signal;HPM_P1;HPM_P2
2022/07/18 00:01:57;;;;;;;5.95;2.00;;;;;;;;;;4947531;28;20047;-73
2022/07/18 00:04:23;;;;;;;3.38;1.40;;;;;;;;;;4952009;28;20037;-75
2022/07/18 00:06:48;;;;;;;3.47;1.67;;;;;;;;;;4944259;28;20046;-72
2022/07/18 00:09:14;;;;;;;9.20;2.00;;;;;;;;;;4944244;28;20035;-74
2022/07/18 00:11:39;;;;;;;2.03;1.50;;;;;;;;;;4942964;28;20071;-74
2022/07/18 00:14:05;;;;;;;4.35;1.60;;;;;;;;;;4944118;28;20783;-73
2022/07/18 00:16:30;;;;;;;3.47;2.05;;;;;;;;;;4945853;28;20122;-74
2022/07/18 00:18:58;;;;;;;7.80;1.60;;;;;;;;;;4944095;28;20174;-73
2022/07/18 00:21:24;;;;;;;3.75;1.77;;;;;;;;;;4943680;28;20200;-74
2022/07/18 00:23:50;;;;;;;1.98;1.45;;;;;;;;;;4943017;28;20039;-75
2022/07/18 00:26:15;;;;;;;3.08;1.60;;;;;;;;;;4943534;28;20066;-75
2022/07/18 00:28:40;;;;;;;3.30;1.60;;;;;;;;;;4944013;28;20109;-74
2022/07/18 00:31:06;;;;;;;2.80;1.60;;;;;;;;;;4945549;28;20082;-73
2022/07/18 00:33:31;;;;;;;1.50;1.40;;;;;;;;;;4943852;28;20074;-73
2022/07/18 00:35:57;;;;;;;2.10;1.60;;;;;;;;;;4951964;28;20515;-73
2022/07/18 00:38:22;;;;;;;2.05;1.40;;;;;;;;;;4951166;28;20085;-73
2022/07/18 00:40:47;;;;;;;5.15;1.92;;;;;;;;;;4943468;28;20042;-74
2022/07/18 00:43:14;;;;;;;3.40;1.80;;;;;;;;;;4943553;28;20050;-72
2022/07/18 00:45:43;;;;;;;1.95;1.75;;;;;;;;;;4944208;28;20034;-73
2022/07/18 00:48:09;;;;;;;3.03;1.90;;;;;;;;;;4943586;28;20502;-74
2022/07/18 00:50:34;;;;;;;2.05;1.80;;;;;;;;;;4943253;28;20047;-74
2022/07/18 00:53:00;;;;;;;2.40;2.03;;;;;;;;;;4943600;28;20042;-74
2022/07/18 00:55:25;;;;;;;9.48;2.20;;;;;;;;;;4943383;28;20049;-72
2022/07/18 00:57:52;;;;;;;3.13;1.60;;;;;;;;;;4949661;28;20630;-75
2022/07/18 01:03:02;;;;;;;6.88;2.20;;;;;;;;;;4941931;28;20038;-74
2022/07/18 01:05:28;;;;;;;4.30;1.77;;;;;;;;;;4943276;28;20126;-73
2022/07/18 01:07:54;;;;;;;1.80;1.70;;;;;;;;;;4944478;28;20436;-74
2022/07/18 01:10:19;;;;;;;3.85;2.08;;;;;;;;;;4943065;28;20035;-73
2022/07/18 01:12:45;;;;;;;4.13;2.00;;;;;;;;;;4943003;28;20126;-72
2022/07/18 01:15:11;;;;;;;2.05;1.80;;;;;;;;;;4944239;28;20035;-74
2022/07/18 01:17:38;;;;;;;4.13;1.98;;;;;;;;;;4944412;28;20046;-73
2022/07/18 01:20:05;;;;;;;4.25;2.10;;;;;;;;;;4943870;28;20384;-73
2022/07/18 01:22:30;;;;;;;2.50;1.73;;;;;;;;;;4943062;28;20234;-74
2022/07/18 01:24:56;;;;;;;2.67;1.90;;;;;;;;;;4943456;28;20146;-73
2022/07/18 01:27:22;;;;;;;2.72;1.90;;;;;;;;;;4957404;28;20079;-73
2022/07/18 01:29:50;;;;;;;4.18;2.00;;;;;;;;;;4945461;28;20101;-74
2022/07/18 01:32:16;;;;;;;2.65;1.92;;;;;;;;;;4941960;28;20051;-73
2022/07/18 01:34:44;;;;;;;3.13;2.00;;;;;;;;;;4950573;28;20165;-74
2022/07/18 01:37:10;;;;;;;4.40;1.80;;;;;;;;;;4941460;28;20158;-74
2022/07/18 01:39:35;;;;;;;2.20;2.00;;;;;;;;;;4943023;28;20142;-73
2022/07/18 01:42:04;;;;;;;4.35;2.03;;;;;;;;;;4951219;28;20063;-75
2022/07/18 01:44:31;;;;;;;2.63;2.10;;;;;;;;;;4950305;28;20039;-74
2022/07/18 01:46:56;;;;;;;8.75;1.95;;;;;;;;;;4944158;28;20490;-74
2022/07/18 01:49:22;;;;;;;2.45;2.25;;;;;;;;;;4942528;28;20041;-73
2022/07/18 01:51:50;;;;;;;2.88;1.83;;;;;;;;;;4945060;28;20054;-74
2022/07/18 01:54:16;;;;;;;2.35;2.00;;;;;;;;;;4947008;28;20042;-73
2022/07/18 01:56:41;;;;;;;2.65;2.00;;;;;;;;;;4942413;28;20043;-74
2022/07/18 01:59:07;;;;;;;3.38;2.22;;;;;;;;;;4942916;28;20066;-74
2022/07/18 02:01:32;;;;;;;2.33;2.10;;;;;;;;;;4944950;28;20031;-75
2022/07/18 02:03:58;;;;;;;7.03;2.20;;;;;;;;;;4943589;28;20039;-73
2022/07/18 02:06:23;;;;;;;2.50;2.30;;;;;;;;;;4942528;28;20906;-74
2022/07/18 02:08:49;;;;;;;4.32;2.50;;;;;;;;;;4942807;28;20039;-75
2022/07/18 02:11:14;;;;;;;2.92;2.30;;;;;;;;;;4949140;28;20491;-74
2022/07/18 02:13:40;;;;;;;3.60;2.60;;;;;;;;;;4942785;28;20043;-74
2022/07/18 02:16:05;;;;;;;3.58;2.72;;;;;;;;;;4947759;28;20036;-73
2022/07/18 02:18:32;;;;;;;3.95;2.63;;;;;;;;;;4953873;28;20499;-74
2022/07/18 02:21:01;;;;;;;2.63;2.30;;;;;;;;;;4945977;28;20123;-74
2022/07/18 02:23:27;;;;;;;3.10;2.55;;;;;;;;;;4946074;28;20109;-74
2022/07/18 02:25:52;;;;;;;4.10;2.40;;;;;;;;;;4957400;28;20582;-74
2022/07/18 02:28:18;;;;;;;4.85;2.38;;;;;;;;;;4948799;28;20504;-74
2022/07/18 02:30:43;;;;;;;3.88;2.42;;;;;;;;;;4952438;28;20460;-73
2022/07/18 02:33:09;;;;;;;4.63;2.58;;;;;;;;;;4949966;28;20039;-73
2022/07/18 02:35:34;;;;;;;4.05;2.45;;;;;;;;;;4951965;28;20070;-73
2022/07/18 02:38:00;;;;;;;2.92;2.60;;;;;;;;;;4948471;28;20090;-75
2022/07/18 02:40:29;;;;;;;2.92;2.50;;;;;;;;;;4953423;28;20392;-73
2022/07/18 02:43:01;;;;;;;2.88;2.33;;;;;;;;;;4955833;28;20236;-72
2022/07/18 02:45:32;;;;;;;7.45;2.60;;;;;;;;;;4951090;28;20110;-74
2022/07/18 02:48:04;;;;;;;5.22;3.00;;;;;;;;;;4953947;28;20543;-73
2022/07/18 02:50:39;;;;;;;4.38;2.55;;;;;;;;;;4954670;28;20063;-73
2022/07/18 02:53:07;;;;;;;4.32;2.47;;;;;;;;;;4955722;28;20048;-73
2022/07/18 02:55:39;;;;;;;3.60;2.50;;;;;;;;;;4956251;28;20097;-73
2022/07/18 02:58:08;;;;;;;2.28;2.10;;;;;;;;;;4950414;28;20125;-74
2022/07/18 03:00:33;;;;;;;3.13;2.20;;;;;;;;;;4953952;28;20032;-73
2022/07/18 03:03:04;;;;;;;2.33;2.13;;;;;;;;;;4956362;28;20046;-73
2022/07/18 03:05:38;;;;;;;3.38;2.17;;;;;;;;;;4951459;28;20039;-73
2022/07/18 03:08:09;;;;;;;2.78;2.10;;;;;;;;;;4947930;28;20030;-73
2022/07/18 03:10:36;;;;;;;5.65;2.30;;;;;;;;;;4945646;28;20051;-73
2022/07/18 03:13:01;;;;;;;2.50;2.30;;;;;;;;;;4945165;28;20543;-73
2022/07/18 03:15:27;;;;;;;2.90;2.47;;;;;;;;;;4955285;28;20121;-73
2022/07/18 03:17:52;;;;;;;3.00;2.33;;;;;;;;;;4945031;28;20098;-72
2022/07/18 03:20:18;;;;;;;4.68;2.40;;;;;;;;;;4945237;28;20078;-72
2022/07/18 03:22:44;;;;;;;2.95;2.00;;;;;;;;;;4943828;28;20043;-73
2022/07/18 03:25:09;;;;;;;2.47;2.20;;;;;;;;;;4944850;28;20113;-72
2022/07/18 03:27:35;;;;;;;4.00;2.30;;;;;;;;;;4942709;28;20142;-73
2022/07/18 03:30:00;;;;;;;3.42;2.13;;;;;;;;;;4944526;28;20114;-73
2022/07/18 03:32:26;;;;;;;3.70;2.42;;;;;;;;;;4942012;28;20035;-74
2022/07/18 03:34:51;;;;;;;2.92;2.60;;;;;;;;;;4955865;28;20043;-73
2022/07/18 03:37:16;;;;;;;6.28;2.65;;;;;;;;;;4956680;28;20043;-73
2022/07/18 03:39:42;;;;;;;2.63;2.42;;;;;;;;;;4942963;28;20039;-74
2022/07/18 03:42:07;;;;;;;2.42;2.22;;;;;;;;;;4946590;28;20039;-73
2022/07/18 03:44:33;;;;;;;5.75;2.47;;;;;;;;;;4944371;28;20070;-72
2022/07/18 03:46:58;;;;;;;3.58;2.40;;;;;;;;;;4946838;28;20092;-73
2022/07/18 03:49:23;;;;;;;4.40;2.40;;;;;;;;;;4946291;28;20054;-73
2022/07/18 03:51:49;;;;;;;3.50;2.65;;;;;;;;;;4944867;28;20035;-73
2022/07/18 03:54:14;;;;;;;4.57;2.63;;;;;;;;;;4944069;28;20111;-73
2022/07/18 03:56:40;;;;;;;2.85;2.65;;;;;;;;;;4942968;28;20073;-73
2022/07/18 03:59:05;;;;;;;5.72;3.67;;;;;;;;;;4944477;28;20046;-73
2022/07/18 04:01:30;;;;;;;4.28;3.25;;;;;;;;;;4955286;28;20726;-73
2022/07/18 04:03:56;;;;;;;4.10;3.22;;;;;;;;;;4943512;28;20066;-72
2022/07/18 04:06:21;;;;;;;3.80;3.30;;;;;;;;;;4946874;28;20043;-72
2022/07/18 04:08:47;;;;;;;4.32;3.75;;;;;;;;;;4944207;28;20046;-73
2022/07/18 04:11:12;;;;;;;5.15;4.15;;;;;;;;;;4944090;28;20053;-72
2022/07/18 04:13:38;;;;;;;9.40;4.45;;;;;;;;;;4944303;28;20129;-73
2022/07/18 04:16:03;;;;;;;4.78;3.67;;;;;;;;;;4949973;28;20027;-73
2022/07/18 04:18:29;;;;;;;9.02;3.65;;;;;;;;;;4942729;28;20042;-72
2022/07/18 04:20:55;;;;;;;14.45;4.03;;;;;;;;;;4943652;28;20043;-72
2022/07/18 04:23:21;;;;;;;4.10;3.67;;;;;;;;;;4944181;28;20037;-73
2022/07/18 04:25:46;;;;;;;3.95;3.55;;;;;;;;;;4943060;28;20043;-72
2022/07/18 04:28:12;;;;;;;5.10;3.75;;;;;;;;;;4958728;28;20050;-73
2022/07/18 04:30:40;;;;;;;5.70;3.78;;;;;;;;;;4943710;28;20038;-72
2022/07/18 04:33:07;;;;;;;4.43;3.70;;;;;;;;;;4943968;28;20109;-74
2022/07/18 04:35:35;;;;;;;5.55;4.00;;;;;;;;;;4943637;28;20050;-74
2022/07/18 04:38:02;;;;;;;6.70;4.13;;;;;;;;;;4947505;28;20035;-72
2022/07/18 04:40:27;;;;;;;4.78;3.60;;;;;;;;;;4945935;28;20034;-73
2022/07/18 04:42:53;;;;;;;4.93;3.55;;;;;;;;;;4945735;28;20034;-72
2022/07/18 04:45:21;;;;;;;5.32;3.20;;;;;;;;;;4945852;28;20487;-72
2022/07/18 04:47:48;;;;;;;5.13;3.25;;;;;;;;;;4942743;28;20514;-72
2022/07/18 04:50:14;;;;;;;4.82;3.90;;;;;;;;;;4949744;28;20042;-73
2022/07/18 04:52:42;;;;;;;4.03;3.63;;;;;;;;;;4943208;28;20050;-72
2022/07/18 04:55:09;;;;;;;5.88;3.80;;;;;;;;;;4947732;28;20067;-72
2022/07/18 04:57:35;;;;;;;4.03;3.42;;;;;;;;;;4942400;28;20090;-72
2022/07/18 05:00:04;;;;;;;4.18;3.78;;;;;;;;;;4946789;28;20085;-73
2022/07/18 05:02:30;;;;;;;6.30;3.50;;;;;;;;;;4940944;28;20027;-73
2022/07/18 05:04:55;;;;;;;4.10;3.60;;;;;;;;;;4945505;28;20039;-72
2022/07/18 05:07:49;;;;;;;5.82;3.90;;;;;;;;;;4954332;28;20049;-73
2022/07/18 05:10:16;;;;;;;8.82;3.40;;;;;;;;;;4945080;28;20063;-72
2022/07/18 05:12:44;;;;;;;6.57;3.28;;;;;;;;;;4947842;28;20476;-72
2022/07/18 05:15:12;;;;;;;11.15;3.20;;;;;;;;;;4948472;28;20042;-73
2022/07/18 05:17:38;;;;;;;4.72;3.25;;;;;;;;;;4943686;28;20043;-73
2022/07/18 05:20:05;;;;;;;4.97;3.17;;;;;;;;;;4940989;28;20094;-73
2022/07/18 05:22:32;;;;;;;5.25;3.28;;;;;;;;;;4948341;28;20801;-74
2022/07/18 05:24:58;;;;;;;8.15;2.92;;;;;;;;;;4949575;28;20648;-72
2022/07/18 05:27:23;;;;;;;5.63;2.95;;;;;;;;;;4940377;28;20020;-72
2022/07/18 05:29:49;;;;;;;4.40;2.67;;;;;;;;;;4945725;28;20446;-72
2022/07/18 05:32:14;;;;;;;5.00;2.63;;;;;;;;;;4944938;28;20035;-71
2022/07/18 05:34:40;;;;;;;3.67;2.67;;;;;;;;;;4944689;28;20043;-74
2022/07/18 05:37:06;;;;;;;4.28;2.55;;;;;;;;;;4942791;28;20054;-73
2022/07/18 05:39:32;;;;;;;6.63;2.80;;;;;;;;;;4942663;28;20027;-73
2022/07/18 05:41:57;;;;;;;5.55;2.70;;;;;;;;;;4942728;28;20062;-73
2022/07/18 05:45:00;;;;;;;3.25;2.70;;;;;;;;;;4958154;28;20038;-74
2022/07/18 05:47:26;;;;;;;3.03;2.30;;;;;;;;;;4945449;28;20035;-74
2022/07/18 05:49:51;;;;;;;2.85;2.35;;;;;;;;;;4951995;28;20039;-74
2022/07/18 05:52:17;;;;;;;7.85;2.60;;;;;;;;;;4945215;28;20436;-73
2022/07/18 05:54:42;;;;;;;4.07;2.50;;;;;;;;;;4950037;28;20055;-74
2022/07/18 05:57:08;;;;;;;3.70;2.70;;;;;;;;;;4945407;28;20108;-74
2022/07/18 05:59:33;;;;;;;3.60;2.25;;;;;;;;;;4955392;28;20035;-74
2022/07/18 06:01:59;;;;;;;7.13;2.67;;;;;;;;;;4948967;28;20042;-75
2022/07/18 06:04:24;;;;;;;3.40;2.40;;;;;;;;;;4945480;28;20038;-75
2022/07/18 06:06:50;;;;;;;7.95;2.58;;;;;;;;;;4954284;28;20100;-74
2022/07/18 06:09:17;;;;;;;3.55;2.75;;;;;;;;;;4945141;28;20414;-72
2022/07/18 06:11:42;;;;;;;3.75;2.72;;;;;;;;;;4945114;28;20098;-73
2022/07/18 06:14:08;;;;;;;5.15;2.63;;;;;;;;;;4946482;28;20138;-74
2022/07/18 06:16:33;;;;;;;8.50;2.85;;;;;;;;;;4947653;28;20061;-74
2022/07/18 06:18:59;;;;;;;2.67;2.47;;;;;;;;;;4950924;28;20039;-74
2022/07/18 06:21:25;;;;;;;4.47;2.58;;;;;;;;;;4951730;28;20118;-72
2022/07/18 06:23:50;;;;;;;3.45;2.30;;;;;;;;;;4945506;28;20043;-73
2022/07/18 06:26:16;;;;;;;5.03;2.60;;;;;;;;;;4945580;28;20138;-74
2022/07/18 06:28:41;;;;;;;9.27;2.72;;;;;;;;;;4953161;28;20081;-71
2022/07/18 06:31:07;;;;;;;5.38;2.75;;;;;;;;;;4947112;28;20031;-74
2022/07/18 06:33:32;;;;;;;2.95;2.65;;;;;;;;;;4945327;28;20050;-73
2022/07/18 06:35:58;;;;;;;6.78;2.63;;;;;;;;;;4945868;28;20043;-74
2022/07/18 06:38:23;;;;;;;6.18;2.40;;;;;;;;;;4944906;28;20867;-74
2022/07/18 06:40:49;;;;;;;4.65;2.30;;;;;;;;;;4946191;28;20043;-73
2022/07/18 06:43:19;;;;;;;4.15;2.17;;;;;;;;;;4947864;28;20039;-72
2022/07/18 06:45:46;;;;;;;5.35;2.15;;;;;;;;;;4947308;28;20047;-74
2022/07/18 06:48:13;;;;;;;2.47;2.28;;;;;;;;;;4943714;28;20575;-73
2022/07/18 06:50:38;;;;;;;5.85;2.72;;;;;;;;;;4952508;28;20038;-73
2022/07/18 06:53:04;;;;;;;5.97;2.53;;;;;;;;;;4945149;28;20093;-70
2022/07/18 06:55:29;;;;;;;2.30;2.10;;;;;;;;;;4945354;28;20551;-75
2022/07/18 06:57:55;;;;;;;3.35;2.60;;;;;;;;;;4945141;28;20058;-72
2022/07/18 07:00:20;;;;;;;3.00;2.42;;;;;;;;;;4945662;28;20038;-75
2022/07/18 07:02:48;;;;;;;4.00;2.40;;;;;;;;;;4952996;28;20295;-71
2022/07/18 07:05:16;;;;;;;4.00;2.47;;;;;;;;;;4945844;28;20069;-74
2022/07/18 07:07:42;;;;;;;2.20;1.95;;;;;;;;;;4944678;28;20039;-75
2022/07/18 07:10:08;;;;;;;2.83;2.35;;;;;;;;;;4944282;28;20035;-72
2022/07/18 07:12:47;;;;;;;2.35;2.00;;;;;;;;;;4944702;28;20035;-72
2022/07/18 07:15:14;;;;;;;3.83;2.40;;;;;;;;;;4942527;28;20141;-74
2022/07/18 07:17:39;;;;;;;2.10;2.00;;;;;;;;;;4946457;28;20090;-75
2022/07/18 07:20:06;;;;;;;4.13;2.33;;;;;;;;;;4944322;28;20530;-74
2022/07/18 07:22:50;;;;;;;3.08;2.17;;;;;;;;;;4944037;28;20070;-76
2022/07/18 07:25:16;;;;;;;6.53;2.30;;;;;;;;;;4946297;28;20043;-74
2022/07/18 07:27:43;;;;;;;2.50;2.10;;;;;;;;;;4944965;28;20046;-73
2022/07/18 07:30:09;;;;;;;4.07;2.05;;;;;;;;;;4944293;28;20039;-74
2022/07/18 07:32:35;;;;;;;4.65;2.28;;;;;;;;;;4946986;28;20126;-71
2022/07/18 07:35:02;;;;;;;6.85;2.30;;;;;;;;;;4944445;28;20492;-75
2022/07/18 07:37:27;;;;;;;2.83;2.45;;;;;;;;;;4945046;28;20035;-75
2022/07/18 07:39:53;;;;;;;6.25;2.22;;;;;;;;;;4957227;28;20039;-73
2022/07/18 07:42:18;;;;;;;2.55;2.10;;;;;;;;;;4944391;28;20027;-72
2022/07/18 07:44:44;;;;;;;2.72;2.00;;;;;;;;;;4944632;28;20516;-75
2022/07/18 07:47:09;;;;;;;4.88;2.13;;;;;;;;;;4943775;28;20114;-74
2022/07/18 07:49:36;;;;;;;3.47;1.88;;;;;;;;;;4950506;28;20050;-70
2022/07/18 07:52:02;;;;;;;3.70;2.30;;;;;;;;;;4940736;28;20404;-72
2022/07/18 07:54:27;;;;;;;2.38;2.15;;;;;;;;;;4954518;28;21193;-72
2022/07/18 07:56:53;;;;;;;3.83;2.13;;;;;;;;;;4942115;28;20566;-73
2022/07/18 07:59:18;;;;;;;8.35;2.30;;;;;;;;;;4942788;28;20082;-72
2022/07/18 08:01:43;;;;;;;6.72;2.40;;;;;;;;;;4945821;28;20122;-71
2022/07/18 08:04:09;;;;;;;2.10;1.90;;;;;;;;;;4941563;28;20043;-71
2022/07/18 08:06:34;;;;;;;2.05;1.85;;;;;;;;;;4941194;28;20508;-73
2022/07/18 08:09:00;;;;;;;4.00;1.95;;;;;;;;;;4942485;28;20043;-73
2022/07/18 08:11:25;;;;;;;4.47;2.20;;;;;;;;;;4941362;28;20047;-73
2022/07/18 08:13:51;;;;;;;3.40;1.95;;;;;;;;;;4941329;28;20043;-73
2022/07/18 08:16:16;;;;;;;2.28;1.83;;;;;;;;;;4944725;28;20055;-74
2022/07/18 08:18:41;;;;;;;2.13;1.92;;;;;;;;;;4946160;28;20685;-72
2022/07/18 08:21:07;;;;;;;2.63;1.90;;;;;;;;;;4941785;28;20043;-75
2022/07/18 08:23:32;;;;;;;3.53;2.10;;;;;;;;;;4942661;28;20039;-71
2022/07/18 08:25:58;;;;;;;5.13;1.92;;;;;;;;;;4946188;28;20039;-72
2022/07/18 08:28:24;;;;;;;2.22;1.80;;;;;;;;;;4943486;28;20856;-70
2022/07/18 08:30:49;;;;;;;2.72;2.13;;;;;;;;;;4944572;28;20062;-74
2022/07/18 08:33:15;;;;;;;3.92;2.00;;;;;;;;;;4944164;28;20054;-71
2022/07/18 08:35:41;;;;;;;4.80;1.58;;;;;;;;;;4943072;28;20055;-75
2022/07/18 08:38:06;;;;;;;2.05;1.63;;;;;;;;;;4947008;28;20086;-72
2022/07/18 08:40:32;;;;;;;5.13;1.75;;;;;;;;;;4940297;28;20035;-70
2022/07/18 08:42:58;;;;;;;4.18;1.70;;;;;;;;;;4941425;28;20055;-72
2022/07/18 08:45:25;;;;;;;3.00;1.85;;;;;;;;;;4945013;28;20030;-70
2022/07/18 08:47:51;;;;;;;3.70;1.75;;;;;;;;;;4940329;28;20157;-73
2022/07/18 08:50:18;;;;;;;3.08;1.30;;;;;;;;;;4945316;28;20018;-74
2022/07/18 08:52:44;;;;;;;1.60;1.33;;;;;;;;;;4942422;28;20058;-74
2022/07/18 08:55:10;;;;;;;4.05;1.40;;;;;;;;;;4941716;28;20404;-73
2022/07/18 08:57:36;;;;;;;4.85;1.70;;;;;;;;;;4942233;28;20035;-75
2022/07/18 09:00:07;;;;;;;1.75;1.40;;;;;;;;;;4941486;28;20054;-74
2022/07/18 09:02:33;;;;;;;3.15;1.30;;;;;;;;;;4942440;28;20039;-74
2022/07/18 09:05:04;;;;;;;1.95;1.10;;;;;;;;;;4940876;28;20061;-75
2022/07/18 09:07:37;;;;;;;9.65;1.83;;;;;;;;;;4942218;28;20154;-73
2022/07/18 09:10:05;;;;;;;2.15;1.10;;;;;;;;;;4941387;28;20496;-75
2022/07/18 09:12:33;;;;;;;1.45;1.30;;;;;;;;;;4940860;28;20107;-75
2022/07/18 09:15:10;;;;;;;1.02;0.95;;;;;;;;;;4941107;28;20124;-73
2022/07/18 09:17:36;;;;;;;1.73;1.35;;;;;;;;;;4942246;28;20148;-75
2022/07/18 09:20:11;;;;;;;4.45;1.50;;;;;;;;;;4925410;28;20069;-76
2022/07/18 09:22:41;;;;;;;2.28;1.25;;;;;;;;;;4941283;28;20042;-75
2022/07/18 09:25:13;;;;;;;1.42;1.25;;;;;;;;;;4950707;28;20082;-75
2022/07/18 09:27:45;;;;;;;3.10;1.48;;;;;;;;;;4945480;28;20472;-74
2022/07/18 09:30:11;;;;;;;2.45;1.30;;;;;;;;;;4945782;28;20059;-75
2022/07/18 09:32:37;;;;;;;1.48;1.27;;;;;;;;;;4947211;28;20101;-75
2022/07/18 09:35:08;;;;;;;1.48;1.23;;;;;;;;;;4945954;28;20577;-72
2022/07/18 09:37:34;;;;;;;3.60;1.10;;;;;;;;;;4946035;28;20066;-73
2022/07/18 09:40:21;;;;;;;3.42;1.25;;;;;;;;;;4944750;28;20074;-73
2022/07/18 09:42:52;;;;;;;2.63;1.30;;;;;;;;;;4950479;28;20043;-72
2022/07/18 09:45:24;;;;;;;1.90;1.10;;;;;;;;;;4946256;28;20039;-72
2022/07/18 09:48:10;;;;;;;5.03;1.40;;;;;;;;;;4945530;28;20031;-75
2022/07/18 09:50:41;;;;;;;1.73;1.10;;;;;;;;;;4944758;28;20071;-75
2022/07/18 09:53:09;;;;;;;;;;;;;;;;;;4945509;28;20066;-75
2022/07/18 09:55:40;;;;;;;3.03;1.30;;;;;;;;;;4944803;28;19926;-74
2022/07/18 09:58:08;;;;;;;2.45;1.20;;;;;;;;;;4950164;28;20109;-72
2022/07/18 10:00:38;;;;;;;2.92;1.33;;;;;;;;;;4959034;28;20126;-73
2022/07/18 10:03:05;;;;;;;2.47;1.20;;;;;;;;;;4951017;28;20043;-73
2022/07/18 10:05:34;;;;;;;1.20;1.10;;;;;;;;;;4943918;28;20031;-71
2022/07/18 10:08:02;;;;;;;3.70;1.00;;;;;;;;;;4945590;28;20109;-75
2022/07/18 10:10:29;;;;;;;3.13;1.08;;;;;;;;;;4945237;28;20035;-74
2022/07/18 10:12:57;;;;;;;1.15;0.80;;;;;;;;;;4944297;28;20050;-73
2022/07/18 10:15:25;;;;;;;2.75;1.42;;;;;;;;;;4947711;28;20040;-74
2022/07/18 10:17:51;;;;;;;0.80;0.80;;;;;;;;;;4943631;28;20082;-75
2022/07/18 10:20:17;;;;;;;1.40;1.08;;;;;;;;;;4944445;28;20113;-75
2022/07/18 10:22:45;;;;;;;1.73;1.15;;;;;;;;;;4949453;28;20050;-75
2022/07/18 10:25:12;;;;;;;5.18;1.10;;;;;;;;;;4944735;28;20076;-74
2022/07/18 10:27:49;;;;;;;1.20;0.90;;;;;;;;;;4944261;28;20045;-74
2022/07/18 10:30:15;;;;;;;0.82;0.82;;;;;;;;;;4944691;28;20027;-74
2022/07/18 10:32:42;;;;;;;5.05;0.85;;;;;;;;;;4947690;28;20031;-75
2022/07/18 10:35:10;;;;;;;3.90;1.02;;;;;;;;;;4949800;28;20109;-74
2022/07/18 10:37:36;;;;;;;2.25;0.95;;;;;;;;;;4948456;28;20045;-71
2022/07/18 10:40:22;;;;;;;0.90;0.85;;;;;;;;;;4945335;28;20035;-75
2022/07/18 10:43:29;;;;;;;2.13;0.80;;;;;;;;;;4944256;28;20035;-74
2022/07/18 10:45:55;;;;;;;1.88;0.90;;;;;;;;;;4939768;28;20118;-74
2022/07/18 10:48:32;;;;;;;3.17;1.10;;;;;;;;;;4944413;28;20099;-73
2022/07/18 10:51:12;;;;;;;1.50;0.93;;;;;;;;;;4943349;28;20031;-76
2022/07/18 10:53:53;;;;;;;1.20;1.08;;;;;;;;;;4944671;28;20054;-75
2022/07/18 10:56:19;;;;;;;1.63;1.10;;;;;;;;;;4953655;28;20171;-73
2022/07/18 10:58:45;;;;;;;4.63;1.08;;;;;;;;;;4937778;28;20150;-74
2022/07/18 11:01:16;;;;;;;2.83;0.98;;;;;;;;;;4946119;28;20057;-72
2022/07/18 11:03:42;;;;;;;2.20;1.33;;;;;;;;;;4948708;28;20051;-73
2022/07/18 11:06:08;;;;;;;1.90;1.30;;;;;;;;;;4943380;28;20079;-75
2022/07/18 11:08:34;;;;;;;3.80;1.10;;;;;;;;;;4943960;28;20102;-74
2022/07/18 11:11:02;;;;;;;1.25;1.02;;;;;;;;;;4944009;28;20083;-75
2022/07/18 11:13:37;;;;;;;12.23;1.48;;;;;;;;;;4954124;28;20066;-74
2022/07/18 11:16:13;;;;;;;6.63;1.40;;;;;;;;;;4945600;28;20055;-73
2022/07/18 11:18:38;;;;;;;3.72;1.40;;;;;;;;;;4944229;28;20043;-73
2022/07/18 11:21:30;;;;;;;4.35;1.27;;;;;;;;;;4956969;28;20089;-73
2022/07/18 11:24:00;;;;;;;1.75;1.15;;;;;;;;;;4944682;28;20063;-73
2022/07/18 11:26:26;;;;;;;2.95;1.17;;;;;;;;;;4942975;28;20419;-73
2022/07/18 11:29:00;;;;;;;3.75;1.30;;;;;;;;;;4943384;28;20043;-72
2022/07/18 11:31:27;;;;;;;2.83;1.40;;;;;;;;;;4949879;28;20047;-73
2022/07/18 11:33:53;;;;;;;2.30;1.20;;;;;;;;;;4948497;28;20043;-73
2022/07/18 11:36:21;;;;;;;2.00;1.27;;;;;;;;;;4943790;28;20050;-72
2022/07/18 11:38:58;;;;;;;3.28;1.23;;;;;;;;;;4943430;28;20058;-73
2022/07/18 11:41:23;;;;;;;4.03;1.30;;;;;;;;;;4949466;28;20050;-73
2022/07/18 11:43:50;;;;;;;4.05;1.48;;;;;;;;;;4942209;28;20078;-71
2022/07/18 11:46:19;;;;;;;2.08;1.15;;;;;;;;;;4947686;28;20046;-74
2022/07/18 11:48:56;;;;;;;4.82;1.30;;;;;;;;;;4945540;28;20075;-71
2022/07/18 11:51:22;;;;;;;2.13;1.10;;;;;;;;;;4941112;28;20714;-74
2022/07/18 11:53:50;;;;;;;3.53;1.40;;;;;;;;;;4942598;28;20150;-75
2022/07/18 11:56:17;;;;;;;2.30;1.30;;;;;;;;;;4941293;28;20117;-76
2022/07/18 11:58:43;;;;;;;1.10;1.10;;;;;;;;;;4942528;28;20051;-72
2022/07/18 12:01:09;;;;;;;2.13;1.20;;;;;;;;;;4945183;28;20043;-73
2022/07/18 12:03:39;;;;;;;2.67;1.17;;;;;;;;;;4941318;28;20042;-73
2022/07/18 12:06:11;;;;;;;1.73;1.33;;;;;;;;;;4942125;28;20043;-73
2022/07/18 12:08:42;;;;;;;1.48;1.30;;;;;;;;;;4944484;28;20082;-73
2022/07/18 12:11:09;;;;;;;;;;;;;;;;;;4942698;28;20061;-74
2022/07/18 12:13:51;;;;;;;3.30;1.15;;;;;;;;;;4942151;28;19961;-74
2022/07/18 12:16:33;;;;;;;4.22;1.30;;;;;;;;;;4945229;28;20093;-73
2022/07/18 12:19:07;;;;;;;6.82;1.40;;;;;;;;;;4940755;28;20047;-73
2022/07/18 12:21:55;;;;;;;1.27;1.10;;;;;;;;;;4942150;28;20107;-73
2022/07/18 12:24:27;;;;;;;5.40;1.48;;;;;;;;;;4940667;28;20050;-74
2022/07/18 12:27:16;;;;;;;1.77;1.10;;;;;;;;;;4940888;28;20031;-73
2022/07/18 12:30:04;;;;;;;1.33;1.10;;;;;;;;;;4944349;28;20051;-75
2022/07/18 12:32:39;;;;;;;5.88;1.20;;;;;;;;;;4957998;28;20042;-72
2022/07/18 12:35:31;;;;;;;1.30;1.20;;;;;;;;;;4945203;28;20047;-72
2022/07/18 12:38:14;;;;;;;2.25;1.20;;;;;;;;;;4943518;28;20067;-74
2022/07/18 12:40:45;;;;;;;7.20;1.05;;;;;;;;;;4941065;28;20146;-74
2022/07/18 12:43:21;;;;;;;2.95;1.40;;;;;;;;;;4941594;28;20808;-74
2022/07/18 12:48:31;;;;;;;1.38;1.20;;;;;;;;;;5325545;23;20160;-74
2022/07/18 12:51:00;;;;;;;3.53;1.40;;;;;;;;;;4979087;28;20061;-74
2022/07/18 12:53:25;;;;;;;4.85;1.33;;;;;;;;;;4979457;28;20037;-74
2022/07/18 12:55:51;;;;;;;1.80;1.38;;;;;;;;;;4977550;28;20053;-75
2022/07/18 12:58:17;;;;;;;3.88;1.20;;;;;;;;;;4962287;28;20117;-73
2022/07/18 13:00:44;;;;;;;1.35;1.20;;;;;;;;;;4979375;28;20089;-74
2022/07/18 13:03:09;;;;;;;3.30;1.10;;;;;;;;;;4979950;28;20049;-73
2022/07/18 13:05:35;;;;;;;2.42;1.13;;;;;;;;;;4962344;28;20058;-72
2022/07/18 13:08:01;;;;;;;4.10;1.50;;;;;;;;;;4979969;28;20120;-73
2022/07/18 13:10:26;;;;;;;2.28;1.05;;;;;;;;;;4979792;28;20049;-72
2022/07/18 13:12:52;;;;;;;4.00;1.25;;;;;;;;;;4979609;28;20042;-74
2022/07/18 13:15:20;;;;;;;1.70;0.95;;;;;;;;;;4979352;28;20038;-75
2022/07/18 13:17:46;;;;;;;0.98;0.90;;;;;;;;;;4979437;28;20911;-73
2022/07/18 13:20:11;;;;;;;4.82;1.13;;;;;;;;;;4980109;28;20037;-72
2022/07/18 13:22:37;;;;;;;2.47;1.05;;;;;;;;;;4979688;28;20544;-72
2022/07/18 13:25:07;;;;;;;0.85;0.85;;;;;;;;;;4979025;28;20113;-72
2022/07/18 13:27:34;;;;;;;1.98;0.85;;;;;;;;;;4979429;28;20050;-71
2022/07/18 13:30:00;;;;;;;3.05;1.05;;;;;;;;;;4979686;28;20053;-72
2022/07/18 13:32:27;;;;;;;1.98;1.10;;;;;;;;;;4979371;28;20060;-72
2022/07/18 13:34:53;;;;;;;2.88;0.88;;;;;;;;;;4979720;28;20145;-72
2022/07/18 13:37:18;;;;;;;2.10;1.02;;;;;;;;;;4978779;28;20161;-73
2022/07/18 13:39:43;;;;;;;1.88;1.17;;;;;;;;;;4980113;28;20168;-73
2022/07/18 13:42:09;;;;;;;2.00;0.98;;;;;;;;;;4961374;28;20022;-74
2022/07/18 13:44:34;;;;;;;1.30;1.20;;;;;;;;;;4980476;28;20031;-71
2022/07/18 13:47:00;;;;;;;0.93;0.90;;;;;;;;;;4978767;28;20649;-74
2022/07/18 13:49:25;;;;;;;1.20;0.95;;;;;;;;;;4962455;28;20047;-74
2022/07/18 13:51:51;;;;;;;1.27;1.00;;;;;;;;;;4979195;28;20113;-73
2022/07/18 13:54:18;;;;;;;1.98;1.00;;;;;;;;;;4962153;28;20056;-73
2022/07/18 13:56:44;;;;;;;1.00;0.90;;;;;;;;;;4961826;28;20034;-73
2022/07/18 13:59:09;;;;;;;1.67;1.02;;;;;;;;;;4978624;28;20081;-74
2022/07/18 14:01:35;;;;;;;1.65;1.08;;;;;;;;;;4979393;28;20074;-76
2022/07/18 14:04:00;;;;;;;3.67;1.08;;;;;;;;;;4979536;28;20125;-75
2022/07/18 14:06:26;;;;;;;1.52;0.90;;;;;;;;;;4979595;28;20034;-76
2022/07/18 14:08:52;;;;;;;2.70;1.00;;;;;;;;;;4977860;28;20494;-75
2022/07/18 14:11:18;;;;;;;1.25;0.90;;;;;;;;;;4982106;28;20026;-73
2022/07/18 14:13:43;;;;;;;2.10;1.20;;;;;;;;;;4984827;28;20050;-72
2022/07/18 14:16:09;;;;;;;5.30;1.05;;;;;;;;;;4983281;28;20046;-72
2022/07/18 14:18:34;;;;;;;1.73;1.02;;;;;;;;;;4983313;28;20038;-74
2022/07/18 14:21:00;;;;;;;2.47;1.42;;;;;;;;;;4964150;28;20042;-74
2022/07/18 14:23:25;;;;;;;1.58;1.00;;;;;;;;;;4982808;28;20570;-72
2022/07/18 14:25:51;;;;;;;1.52;1.00;;;;;;;;;;4982844;28;20042;-73
2022/07/18 14:28:16;;;;;;;4.97;1.00;;;;;;;;;;4983129;28;20057;-74
2022/07/18 14:30:41;;;;;;;3.28;1.17;;;;;;;;;;4964348;28;20049;-71
2022/07/18 14:33:07;;;;;;;1.88;0.90;;;;;;;;;;4981973;28;20033;-74
2022/07/18 14:35:32;;;;;;;3.58;1.40;;;;;;;;;;4982492;28;20073;-71
2022/07/18 14:37:58;;;;;;;3.88;0.88;;;;;;;;;;4982786;28;20046;-72
2022/07/18 14:40:23;;;;;;;4.15;1.10;;;;;;;;;;4984482;28;20065;-71
2022/07/18 14:42:50;;;;;;;2.08;0.88;;;;;;;;;;4984044;28;20039;-74
2022/07/18 14:45:16;;;;;;;3.05;1.10;;;;;;;;;;4982746;28;20038;-74
2022/07/18 14:47:42;;;;;;;6.15;1.05;;;;;;;;;;4982557;28;20034;-75
2022/07/18 14:50:09;;;;;;;1.13;0.80;;;;;;;;;;4982521;28;20733;-73
2022/07/18 14:52:36;;;;;;;3.00;1.25;;;;;;;;;;4947710;28;20499;-74